sensor_id;sensor_type;location;lat;lon;timestamp;P1;durP1;ratioP1;P2;durP2;ratioP2
13343;SDS011;6741;48.964;9.406;2022-11-09T00:00:39;18.47;;;12.33;;
13343;SDS011;6741;48.964;9.406;2022-11-09T00:03:07;19.37;;;13.07;;
13343;SDS011;6741;48.964;9.406;2022-11-09T00:05:34;19.27;;;12.63;;
13343;SDS011;6741;48.964;9.406;2022-11-09T00:08:03;19.87;;;13.53;;
13343;SDS011;6741;48.964;9.406;2022-11-09T00:10:31;16.20;;;11.17;;
13343;SDS011;6741;48.964;9.406;2022-11-09T00:12:59;14.27;;;10.13;;
13343;SDS011;6741;48.964;9.406;2022-11-09T00:15:26;9.70;;;8.23;;
13343;SDS011;6741;48.964;9.406;2022-11-09T00:17:53;9.83;;;6.77;;
13343;SDS011;6741;48.964;9.406;2022-11-09T00:20:20;6.07;;;5.47;;
13343;SDS011;6741;48.964;9.406;2022-11-09T00:22:47;7.23;;;5.53;;
13343;SDS011;6741;48.964;9.406;2022-11-09T00:25:15;8.47;;;4.77;;
13343;SDS011;6741;48.964;9.406;2022-11-09T00:27:42;5.37;;;4.60;;
13343;SDS011;6741;48.964;9.406;2022-11-09T00:30:11;7.03;;;4.17;;
13343;SDS011;6741;48.964;9.406;2022-11-09T00:32:38;5.73;;;4.30;;
13343;SDS011;6741;48.964;9.406;2022-11-09T00:35:05;4.87;;;3.97;;
13343;SDS011;6741;48.964;9.406;2022-11-09T00:37:32;4.97;;;4.23;;
13343;SDS011;6741;48.964;9.406;2022-11-09T00:39:59;5.33;;;4.00;;
13343;SDS011;6741;48.964;9.406;2022-11-09T00:42:26;5.10;;;3.90;;
13343;SDS011;6741;48.964;9.406;2022-11-09T00:44:53;6.17;;;4.23;;
13343;SDS011;6741;48.964;9.406;2022-11-09T00:47:21;5.47;;;4.20;;
13343;SDS011;6741;48.964;9.406;2022-11-09T00:49:48;4.60;;;4.20;;
13343;SDS011;6741;48.964;9.406;2022-11-09T00:52:15;6.50;;;5.00;;
13343;SDS011;6741;48.964;9.406;2022-11-09T00:54:42;5.13;;;4.47;;
13343;SDS011;6741;48.964;9.406;2022-11-09T00:57:10;5.87;;;4.13;;
13343;SDS011;6741;48.964;9.406;2022-11-09T00:59:38;6.03;;;4.33;;
13343;SDS011;6741;48.964;9.406;2022-11-09T01:02:05;10.53;;;8.17;;
13343;SDS011;6741;48.964;9.406;2022-11-09T01:04:33;6.73;;;5.37;;
13343;SDS011;6741;48.964;9.406;2022-11-09T01:07:01;12.00;;;6.93;;
13343;SDS011;6741;48.964;9.406;2022-11-09T01:09:27;6.90;;;6.20;;
13343;SDS011;6741;48.964;9.406;2022-11-09T01:11:55;5.60;;;4.70;;
13343;SDS011;6741;48.964;9.406;2022-11-09T01:14:22;5.80;;;4.17;;
13343;SDS011;6741;48.964;9.406;2022-11-09T01:16:49;4.70;;;3.80;;
13343;SDS011;6741;48.964;9.406;2022-11-09T01:19:16;8.20;;;5.47;;
13343;SDS011;6741;48.964;9.406;2022-11-09T01:21:44;6.17;;;4.93;;
13343;SDS011;6741;48.964;9.406;2022-11-09T01:24:11;7.70;;;5.00;;
13343;SDS011;6741;48.964;9.406;2022-11-09T01:26:38;12.13;;;9.27;;
13343;SDS011;6741;48.964;9.406;2022-11-09T01:29:05;8.17;;;6.73;;
13343;SDS011;6741;48.964;9.406;2022-11-09T01:31:32;6.70;;;5.80;;
13343;SDS011;6741;48.964;9.406;2022-11-09T01:33:59;9.23;;;6.77;;
13343;SDS011;6741;48.964;9.406;2022-11-09T01:36:26;8.00;;;6.00;;
13343;SDS011;6741;48.964;9.406;2022-11-09T01:38:55;10.37;;;6.47;;
13343;SDS011;6741;48.964;9.406;2022-11-09T01:41:23;10.27;;;6.43;;
13343;SDS011;6741;48.964;9.406;2022-11-09T01:44:04;6.90;;;6.00;;
13343;SDS011;6741;48.964;9.406;2022-11-09T01:46:34;9.13;;;6.07;;
13343;SDS011;6741;48.964;9.406;2022-11-09T01:49:10;10.70;;;6.70;;
13343;SDS011;6741;48.964;9.406;2022-11-09T01:51:41;10.20;;;6.53;;
13343;SDS011;6741;48.964;9.406;2022-11-09T01:54:14;15.13;;;8.87;;
13343;SDS011;6741;48.964;9.406;2022-11-09T01:56:45;17.77;;;10.17;;
13343;SDS011;6741;48.964;9.406;2022-11-09T01:59:15;17.23;;;10.27;;
13343;SDS011;6741;48.964;9.406;2022-11-09T02:01:44;18.57;;;10.77;;
13343;SDS011;6741;48.964;9.406;2022-11-09T02:04:12;16.17;;;9.50;;
13343;SDS011;6741;48.964;9.406;2022-11-09T02:06:42;14.47;;;9.23;;
13343;SDS011;6741;48.964;9.406;2022-11-09T02:09:11;15.73;;;9.80;;
13343;SDS011;6741;48.964;9.406;2022-11-09T02:11:44;14.27;;;9.93;;
13343;SDS011;6741;48.964;9.406;2022-11-09T02:14:11;15.80;;;10.03;;
13343;SDS011;6741;48.964;9.406;2022-11-09T02:16:39;14.57;;;8.47;;
13343;SDS011;6741;48.964;9.406;2022-11-09T02:19:07;14.37;;;9.30;;
13343;SDS011;6741;48.964;9.406;2022-11-09T02:21:35;12.93;;;8.43;;
13343;SDS011;6741;48.964;9.406;2022-11-09T02:24:03;9.93;;;6.97;;
13343;SDS011;6741;48.964;9.406;2022-11-09T02:26:31;11.10;;;7.00;;
13343;SDS011;6741;48.964;9.406;2022-11-09T02:29:02;10.53;;;7.70;;
13343;SDS011;6741;48.964;9.406;2022-11-09T02:31:32;12.07;;;7.10;;
13343;SDS011;6741;48.964;9.406;2022-11-09T02:34:02;9.10;;;6.87;;
13343;SDS011;6741;48.964;9.406;2022-11-09T02:36:31;8.40;;;6.40;;
13343;SDS011;6741;48.964;9.406;2022-11-09T02:39:00;8.53;;;6.23;;
13343;SDS011;6741;48.964;9.406;2022-11-09T02:41:27;8.87;;;6.60;;
13343;SDS011;6741;48.964;9.406;2022-11-09T02:43:57;11.03;;;6.77;;
13343;SDS011;6741;48.964;9.406;2022-11-09T02:46:29;9.90;;;7.33;;
13343;SDS011;6741;48.964;9.406;2022-11-09T02:48:57;10.23;;;7.47;;
13343;SDS011;6741;48.964;9.406;2022-11-09T02:51:24;11.53;;;7.23;;
13343;SDS011;6741;48.964;9.406;2022-11-09T02:53:51;9.23;;;6.80;;
13343;SDS011;6741;48.964;9.406;2022-11-09T02:56:19;11.10;;;6.73;;
13343;SDS011;6741;48.964;9.406;2022-11-09T02:58:46;9.20;;;6.43;;
13343;SDS011;6741;48.964;9.406;2022-11-09T03:01:13;7.03;;;6.00;;
13343;SDS011;6741;48.964;9.406;2022-11-09T03:03:41;7.50;;;6.27;;
13343;SDS011;6741;48.964;9.406;2022-11-09T03:06:08;6.80;;;5.70;;
13343;SDS011;6741;48.964;9.406;2022-11-09T03:08:34;8.30;;;5.43;;
13343;SDS011;6741;48.964;9.406;2022-11-09T03:11:02;6.10;;;5.50;;
13343;SDS011;6741;48.964;9.406;2022-11-09T03:13:31;6.80;;;6.10;;
13343;SDS011;6741;48.964;9.406;2022-11-09T03:16:02;9.87;;;5.63;;
13343;SDS011;6741;48.964;9.406;2022-11-09T03:18:29;6.60;;;5.70;;
13343;SDS011;6741;48.964;9.406;2022-11-09T03:20:59;9.47;;;6.80;;
13343;SDS011;6741;48.964;9.406;2022-11-09T03:23:27;6.70;;;5.87;;
13343;SDS011;6741;48.964;9.406;2022-11-09T03:25:54;8.03;;;6.43;;
13343;SDS011;6741;48.964;9.406;2022-11-09T03:28:21;8.10;;;5.70;;
13343;SDS011;6741;48.964;9.406;2022-11-09T03:30:49;10.37;;;6.13;;
13343;SDS011;6741;48.964;9.406;2022-11-09T03:33:16;7.67;;;6.17;;
13343;SDS011;6741;48.964;9.406;2022-11-09T03:35:43;6.53;;;5.23;;
13343;SDS011;6741;48.964;9.406;2022-11-09T03:38:10;6.57;;;5.77;;
13343;SDS011;6741;48.964;9.406;2022-11-09T03:40:38;8.00;;;6.07;;
13343;SDS011;6741;48.964;9.406;2022-11-09T03:43:05;8.30;;;5.83;;
13343;SDS011;6741;48.964;9.406;2022-11-09T03:45:32;7.23;;;6.20;;
13343;SDS011;6741;48.964;9.406;2022-11-09T03:48:00;9.23;;;6.00;;
13343;SDS011;6741;48.964;9.406;2022-11-09T03:50:28;6.67;;;5.87;;
13343;SDS011;6741;48.964;9.406;2022-11-09T03:52:56;7.17;;;5.57;;
13343;SDS011;6741;48.964;9.406;2022-11-09T03:55:24;7.73;;;6.40;;
13343;SDS011;6741;48.964;9.406;2022-11-09T03:57:51;6.80;;;5.60;;
13343;SDS011;6741;48.964;9.406;2022-11-09T04:00:19;7.03;;;6.43;;
13343;SDS011;6741;48.964;9.406;2022-11-09T04:02:47;9.33;;;6.60;;
13343;SDS011;6741;48.964;9.406;2022-11-09T04:05:16;6.40;;;5.70;;
13343;SDS011;6741;48.964;9.406;2022-11-09T04:07:47;10.83;;;6.60;;
13343;SDS011;6741;48.964;9.406;2022-11-09T04:10:15;11.17;;;6.30;;
13343;SDS011;6741;48.964;9.406;2022-11-09T04:12:42;6.97;;;5.90;;
13343;SDS011;6741;48.964;9.406;2022-11-09T04:15:09;8.40;;;6.70;;
13343;SDS011;6741;48.964;9.406;2022-11-09T04:17:37;9.03;;;7.00;;
13343;SDS011;6741;48.964;9.406;2022-11-09T04:20:04;9.57;;;7.03;;
13343;SDS011;6741;48.964;9.406;2022-11-09T04:22:34;8.43;;;7.13;;
13343;SDS011;6741;48.964;9.406;2022-11-09T04:25:01;8.40;;;7.10;;
13343;SDS011;6741;48.964;9.406;2022-11-09T04:27:28;8.87;;;7.00;;
13343;SDS011;6741;48.964;9.406;2022-11-09T04:29:55;7.73;;;6.53;;
13343;SDS011;6741;48.964;9.406;2022-11-09T04:32:22;8.50;;;6.93;;
13343;SDS011;6741;48.964;9.406;2022-11-09T04:34:49;9.60;;;6.37;;
13343;SDS011;6741;48.964;9.406;2022-11-09T04:37:16;8.67;;;7.00;;
13343;SDS011;6741;48.964;9.406;2022-11-09T04:39:44;8.00;;;6.73;;
13343;SDS011;6741;48.964;9.406;2022-11-09T04:42:11;7.13;;;6.37;;
13343;SDS011;6741;48.964;9.406;2022-11-09T04:44:38;7.00;;;6.20;;
13343;SDS011;6741;48.964;9.406;2022-11-09T04:47:05;7.17;;;6.30;;
13343;SDS011;6741;48.964;9.406;2022-11-09T04:49:32;7.83;;;7.13;;
13343;SDS011;6741;48.964;9.406;2022-11-09T04:51:59;7.27;;;6.33;;
13343;SDS011;6741;48.964;9.406;2022-11-09T04:54:26;7.63;;;6.40;;
13343;SDS011;6741;48.964;9.406;2022-11-09T04:56:55;8.60;;;7.13;;
13343;SDS011;6741;48.964;9.406;2022-11-09T04:59:21;8.90;;;6.80;;
13343;SDS011;6741;48.964;9.406;2022-11-09T05:01:48;8.03;;;7.27;;
13343;SDS011;6741;48.964;9.406;2022-11-09T05:04:15;16.40;;;13.03;;
13343;SDS011;6741;48.964;9.406;2022-11-09T05:06:42;14.43;;;11.87;;
13343;SDS011;6741;48.964;9.406;2022-11-09T05:09:09;10.93;;;8.70;;
13343;SDS011;6741;48.964;9.406;2022-11-09T05:11:36;11.17;;;7.67;;
13343;SDS011;6741;48.964;9.406;2022-11-09T05:14:05;9.70;;;7.77;;
13343;SDS011;6741;48.964;9.406;2022-11-09T05:16:32;8.27;;;6.97;;
13343;SDS011;6741;48.964;9.406;2022-11-09T05:18:59;8.00;;;7.23;;
13343;SDS011;6741;48.964;9.406;2022-11-09T05:21:26;15.37;;;13.23;;
13343;SDS011;6741;48.964;9.406;2022-11-09T05:23:53;14.23;;;12.93;;
13343;SDS011;6741;48.964;9.406;2022-11-09T05:26:27;11.07;;;9.97;;
13343;SDS011;6741;48.964;9.406;2022-11-09T05:28:56;9.47;;;8.13;;
13343;SDS011;6741;48.964;9.406;2022-11-09T05:31:25;10.60;;;8.17;;
13343;SDS011;6741;48.964;9.406;2022-11-09T05:33:55;10.17;;;7.93;;
13343;SDS011;6741;48.964;9.406;2022-11-09T05:36:23;7.77;;;7.03;;
13343;SDS011;6741;48.964;9.406;2022-11-09T05:38:51;11.83;;;8.53;;
13343;SDS011;6741;48.964;9.406;2022-11-09T05:41:19;15.40;;;9.27;;
13343;SDS011;6741;48.964;9.406;2022-11-09T05:43:46;7.97;;;7.20;;
13343;SDS011;6741;48.964;9.406;2022-11-09T05:46:13;8.67;;;6.80;;
13343;SDS011;6741;48.964;9.406;2022-11-09T05:48:43;9.67;;;6.87;;
13343;SDS011;6741;48.964;9.406;2022-11-09T05:51:11;7.50;;;6.80;;
13343;SDS011;6741;48.964;9.406;2022-11-09T05:53:39;10.50;;;7.60;;
13343;SDS011;6741;48.964;9.406;2022-11-09T05:56:07;8.87;;;7.07;;
13343;SDS011;6741;48.964;9.406;2022-11-09T05:58:35;8.47;;;7.60;;
13343;SDS011;6741;48.964;9.406;2022-11-09T06:01:03;8.53;;;7.67;;
13343;SDS011;6741;48.964;9.406;2022-11-09T06:03:31;7.97;;;7.10;;
13343;SDS011;6741;48.964;9.406;2022-11-09T06:06:00;8.40;;;7.07;;
13343;SDS011;6741;48.964;9.406;2022-11-09T06:08:29;10.03;;;7.37;;
13343;SDS011;6741;48.964;9.406;2022-11-09T06:10:56;9.13;;;6.97;;
13343;SDS011;6741;48.964;9.406;2022-11-09T06:13:24;9.27;;;7.77;;
13343;SDS011;6741;48.964;9.406;2022-11-09T06:15:52;8.03;;;7.17;;
13343;SDS011;6741;48.964;9.406;2022-11-09T06:18:20;11.67;;;7.37;;
13343;SDS011;6741;48.964;9.406;2022-11-09T06:20:49;10.17;;;7.43;;
13343;SDS011;6741;48.964;9.406;2022-11-09T06:23:19;8.37;;;7.57;;
13343;SDS011;6741;48.964;9.406;2022-11-09T06:25:50;7.83;;;7.03;;
13343;SDS011;6741;48.964;9.406;2022-11-09T06:28:17;9.40;;;7.60;;
13343;SDS011;6741;48.964;9.406;2022-11-09T06:30:44;10.93;;;8.47;;
13343;SDS011;6741;48.964;9.406;2022-11-09T06:33:11;9.03;;;8.13;;
13343;SDS011;6741;48.964;9.406;2022-11-09T06:35:38;10.47;;;7.50;;
13343;SDS011;6741;48.964;9.406;2022-11-09T06:38:05;8.90;;;8.00;;
13343;SDS011;6741;48.964;9.406;2022-11-09T06:40:35;9.07;;;8.00;;
13343;SDS011;6741;48.964;9.406;2022-11-09T06:43:03;8.97;;;8.07;;
13343;SDS011;6741;48.964;9.406;2022-11-09T06:45:31;10.47;;;8.60;;
13343;SDS011;6741;48.964;9.406;2022-11-09T06:47:59;10.23;;;8.10;;
13343;SDS011;6741;48.964;9.406;2022-11-09T06:50:28;8.93;;;7.70;;
13343;SDS011;6741;48.964;9.406;2022-11-09T06:52:56;8.50;;;7.27;;
13343;SDS011;6741;48.964;9.406;2022-11-09T06:55:24;13.10;;;8.80;;
13343;SDS011;6741;48.964;9.406;2022-11-09T06:57:52;13.50;;;11.87;;
13343;SDS011;6741;48.964;9.406;2022-11-09T07:00:19;11.23;;;10.03;;
13343;SDS011;6741;48.964;9.406;2022-11-09T07:02:47;10.40;;;9.33;;
13343;SDS011;6741;48.964;9.406;2022-11-09T07:05:14;9.43;;;8.53;;
13343;SDS011;6741;48.964;9.406;2022-11-09T07:07:41;12.17;;;8.57;;
13343;SDS011;6741;48.964;9.406;2022-11-09T07:10:08;10.47;;;9.37;;
13343;SDS011;6741;48.964;9.406;2022-11-09T07:12:35;8.87;;;7.97;;
13343;SDS011;6741;48.964;9.406;2022-11-09T07:15:04;13.30;;;8.40;;
13343;SDS011;6741;48.964;9.406;2022-11-09T07:17:32;7.93;;;7.10;;
13343;SDS011;6741;48.964;9.406;2022-11-09T07:20:01;8.73;;;7.70;;
13343;SDS011;6741;48.964;9.406;2022-11-09T07:22:28;10.17;;;9.07;;
13343;SDS011;6741;48.964;9.406;2022-11-09T07:24:55;22.50;;;17.97;;
13343;SDS011;6741;48.964;9.406;2022-11-09T07:27:22;15.10;;;11.03;;
13343;SDS011;6741;48.964;9.406;2022-11-09T07:29:49;10.17;;;8.93;;
13343;SDS011;6741;48.964;9.406;2022-11-09T07:32:17;13.27;;;9.77;;
13343;SDS011;6741;48.964;9.406;2022-11-09T07:34:44;12.23;;;10.20;;
13343;SDS011;6741;48.964;9.406;2022-11-09T07:37:12;12.57;;;11.30;;
13343;SDS011;6741;48.964;9.406;2022-11-09T07:39:38;14.00;;;12.47;;
13343;SDS011;6741;48.964;9.406;2022-11-09T07:42:06;12.63;;;11.33;;
13343;SDS011;6741;48.964;9.406;2022-11-09T07:44:33;12.77;;;11.00;;
13343;SDS011;6741;48.964;9.406;2022-11-09T07:47:00;11.60;;;9.80;;
13343;SDS011;6741;48.964;9.406;2022-11-09T07:49:28;10.80;;;9.03;;
13343;SDS011;6741;48.964;9.406;2022-11-09T07:51:55;10.80;;;9.40;;
13343;SDS011;6741;48.964;9.406;2022-11-09T07:54:22;11.47;;;10.27;;
13343;SDS011;6741;48.964;9.406;2022-11-09T07:56:49;59.40;;;41.17;;
13343;SDS011;6741;48.964;9.406;2022-11-09T07:59:17;32.57;;;23.40;;
13343;SDS011;6741;48.964;9.406;2022-11-09T08:01:44;60.83;;;39.60;;
13343;SDS011;6741;48.964;9.406;2022-11-09T08:04:11;17.63;;;14.80;;
13343;SDS011;6741;48.964;9.406;2022-11-09T08:06:40;10.17;;;8.83;;
13343;SDS011;6741;48.964;9.406;2022-11-09T08:09:07;9.40;;;8.57;;
13343;SDS011;6741;48.964;9.406;2022-11-09T08:11:34;9.67;;;8.60;;
13343;SDS011;6741;48.964;9.406;2022-11-09T08:14:01;10.90;;;8.87;;
13343;SDS011;6741;48.964;9.406;2022-11-09T08:16:28;9.23;;;8.33;;
13343;SDS011;6741;48.964;9.406;2022-11-09T08:18:54;9.40;;;8.40;;
13343;SDS011;6741;48.964;9.406;2022-11-09T08:21:22;8.10;;;7.30;;
13343;SDS011;6741;48.964;9.406;2022-11-09T08:23:50;9.07;;;8.17;;
13343;SDS011;6741;48.964;9.406;2022-11-09T08:26:17;9.10;;;8.20;;
13343;SDS011;6741;48.964;9.406;2022-11-09T08:28:44;9.10;;;8.10;;
13343;SDS011;6741;48.964;9.406;2022-11-09T08:31:11;9.70;;;8.80;;
13343;SDS011;6741;48.964;9.406;2022-11-09T08:33:39;10.00;;;9.00;;
13343;SDS011;6741;48.964;9.406;2022-11-09T08:36:07;10.60;;;9.20;;
13343;SDS011;6741;48.964;9.406;2022-11-09T08:38:35;9.47;;;8.57;;
13343;SDS011;6741;48.964;9.406;2022-11-09T08:41:03;9.60;;;8.67;;
13343;SDS011;6741;48.964;9.406;2022-11-09T08:43:31;9.80;;;8.40;;
13343;SDS011;6741;48.964;9.406;2022-11-09T08:45:58;9.90;;;8.10;;
13343;SDS011;6741;48.964;9.406;2022-11-09T08:48:25;8.70;;;7.87;;
13343;SDS011;6741;48.964;9.406;2022-11-09T08:50:52;8.93;;;7.97;;
13343;SDS011;6741;48.964;9.406;2022-11-09T08:53:20;8.70;;;7.90;;
13343;SDS011;6741;48.964;9.406;2022-11-09T08:55:47;9.17;;;8.13;;
13343;SDS011;6741;48.964;9.406;2022-11-09T08:58:16;9.17;;;8.33;;
13343;SDS011;6741;48.964;9.406;2022-11-09T09:00:44;8.80;;;7.90;;
13343;SDS011;6741;48.964;9.406;2022-11-09T09:03:11;10.37;;;7.80;;
13343;SDS011;6741;48.964;9.406;2022-11-09T09:05:38;9.10;;;8.23;;
13343;SDS011;6741;48.964;9.406;2022-11-09T09:08:05;8.63;;;7.83;;
13343;SDS011;6741;48.964;9.406;2022-11-09T09:10:35;8.80;;;7.53;;
13343;SDS011;6741;48.964;9.406;2022-11-09T09:13:02;9.57;;;7.40;;
13343;SDS011;6741;48.964;9.406;2022-11-09T09:15:31;9.33;;;8.10;;
13343;SDS011;6741;48.964;9.406;2022-11-09T09:17:58;8.30;;;7.43;;
13343;SDS011;6741;48.964;9.406;2022-11-09T09:20:26;8.40;;;7.47;;
13343;SDS011;6741;48.964;9.406;2022-11-09T09:22:53;8.40;;;7.50;;
13343;SDS011;6741;48.964;9.406;2022-11-09T09:25:22;7.77;;;6.63;;
13343;SDS011;6741;48.964;9.406;2022-11-09T09:27:49;8.13;;;6.73;;
13343;SDS011;6741;48.964;9.406;2022-11-09T09:30:16;8.30;;;7.00;;
13343;SDS011;6741;48.964;9.406;2022-11-09T09:32:45;8.33;;;7.53;;
13343;SDS011;6741;48.964;9.406;2022-11-09T09:35:11;6.50;;;5.87;;
13343;SDS011;6741;48.964;9.406;2022-11-09T09:37:38;7.23;;;6.00;;
13343;SDS011;6741;48.964;9.406;2022-11-09T09:40:06;6.47;;;5.87;;
13343;SDS011;6741;48.964;9.406;2022-11-09T09:42:34;7.53;;;5.50;;
13343;SDS011;6741;48.964;9.406;2022-11-09T09:45:09;6.37;;;5.77;;
13343;SDS011;6741;48.964;9.406;2022-11-09T09:47:43;5.90;;;5.30;;
13343;SDS011;6741;48.964;9.406;2022-11-09T09:50:17;6.33;;;5.63;;
13343;SDS011;6741;48.964;9.406;2022-11-09T09:52:48;5.73;;;5.23;;
13343;SDS011;6741;48.964;9.406;2022-11-09T09:55:21;5.90;;;5.40;;
13343;SDS011;6741;48.964;9.406;2022-11-09T09:57:52;8.10;;;4.77;;
13343;SDS011;6741;48.964;9.406;2022-11-09T10:00:22;4.17;;;3.87;;
13343;SDS011;6741;48.964;9.406;2022-11-09T10:02:52;4.77;;;4.17;;
13343;SDS011;6741;48.964;9.406;2022-11-09T10:05:20;4.40;;;3.80;;
13343;SDS011;6741;48.964;9.406;2022-11-09T10:07:56;4.97;;;4.47;;
13343;SDS011;6741;48.964;9.406;2022-11-09T10:10:35;7.50;;;4.00;;
13343;SDS011;6741;48.964;9.406;2022-11-09T10:13:15;3.87;;;3.47;;
13343;SDS011;6741;48.964;9.406;2022-11-09T10:16:00;3.23;;;2.87;;
13343;SDS011;6741;48.964;9.406;2022-11-09T10:18:36;2.60;;;2.37;;
13343;SDS011;6741;48.964;9.406;2022-11-09T10:21:19;2.43;;;2.03;;
13343;SDS011;6741;48.964;9.406;2022-11-09T10:23:58;2.23;;;1.60;;
13343;SDS011;6741;48.964;9.406;2022-11-09T10:26:36;5.87;;;2.00;;
13343;SDS011;6741;48.964;9.406;2022-11-09T10:29:14;4.60;;;1.97;;
13343;SDS011;6741;48.964;9.406;2022-11-09T10:31:48;2.03;;;1.83;;
13343;SDS011;6741;48.964;9.406;2022-11-09T10:34:19;2.10;;;1.90;;
13343;SDS011;6741;48.964;9.406;2022-11-09T10:36:51;3.80;;;1.67;;
13343;SDS011;6741;48.964;9.406;2022-11-09T10:39:23;2.43;;;1.77;;
13343;SDS011;6741;48.964;9.406;2022-11-09T10:41:52;2.20;;;1.60;;
13343;SDS011;6741;48.964;9.406;2022-11-09T10:44:19;1.60;;;1.50;;
13343;SDS011;6741;48.964;9.406;2022-11-09T10:47:03;2.13;;;1.50;;
13343;SDS011;6741;48.964;9.406;2022-11-09T10:49:33;2.03;;;1.50;;
13343;SDS011;6741;48.964;9.406;2022-11-09T10:52:02;2.77;;;1.43;;
13343;SDS011;6741;48.964;9.406;2022-11-09T10:54:29;1.43;;;1.37;;
13343;SDS011;6741;48.964;9.406;2022-11-09T10:57:00;2.47;;;1.60;;
13343;SDS011;6741;48.964;9.406;2022-11-09T10:59:43;1.97;;;1.57;;
13343;SDS011;6741;48.964;9.406;2022-11-09T11:05:21;1.88;;;1.70;;
13343;SDS011;6741;48.964;9.406;2022-11-09T11:10:48;3.07;;;1.53;;
13343;SDS011;6741;48.964;9.406;2022-11-09T11:13:19;3.00;;;1.80;;
13343;SDS011;6741;48.964;9.406;2022-11-09T11:15:48;5.37;;;2.00;;
13343;SDS011;6741;48.964;9.406;2022-11-09T11:18:18;3.57;;;1.70;;
13343;SDS011;6741;48.964;9.406;2022-11-09T11:20:51;2.00;;;1.80;;
13343;SDS011;6741;48.964;9.406;2022-11-09T11:23:32;3.20;;;1.67;;
13343;SDS011;6741;48.964;9.406;2022-11-09T11:29:04;3.03;;;1.55;;
13343;SDS011;6741;48.964;9.406;2022-11-09T11:31:36;4.45;;;1.85;;
13343;SDS011;6741;48.964;9.406;2022-11-09T11:34:04;2.90;;;1.65;;
13343;SDS011;6741;48.964;9.406;2022-11-09T11:36:43;2.08;;;1.33;;
13343;SDS011;6741;48.964;9.406;2022-11-09T11:39:22;1.35;;;1.27;;
13343;SDS011;6741;48.964;9.406;2022-11-09T11:42:02;1.23;;;1.13;;
13343;SDS011;6741;48.964;9.406;2022-11-09T11:44:50;2.60;;;1.52;;
13343;SDS011;6741;48.964;9.406;2022-11-09T11:47:35;1.65;;;1.15;;
13343;SDS011;6741;48.964;9.406;2022-11-09T11:50:34;1.25;;;1.15;;
13343;SDS011;6741;48.964;9.406;2022-11-09T11:53:16;1.50;;;1.17;;
13343;SDS011;6741;48.964;9.406;2022-11-09T11:56:06;1.13;;;1.02;;
13343;SDS011;6741;48.964;9.406;2022-11-09T11:58:52;1.50;;;1.40;;
13343;SDS011;6741;48.964;9.406;2022-11-09T12:01:33;1.35;;;1.20;;
13343;SDS011;6741;48.964;9.406;2022-11-09T12:04:22;1.73;;;1.27;;
13343;SDS011;6741;48.964;9.406;2022-11-09T12:07:12;1.35;;;1.13;;
13343;SDS011;6741;48.964;9.406;2022-11-09T12:09:57;1.15;;;1.05;;
13343;SDS011;6741;48.964;9.406;2022-11-09T12:12:38;2.00;;;1.40;;
13343;SDS011;6741;48.964;9.406;2022-11-09T12:15:23;1.60;;;1.23;;
13343;SDS011;6741;48.964;9.406;2022-11-09T12:18:14;2.05;;;1.60;;
13343;SDS011;6741;48.964;9.406;2022-11-09T12:20:54;1.63;;;1.45;;
13343;SDS011;6741;48.964;9.406;2022-11-09T12:23:32;1.77;;;1.67;;
13343;SDS011;6741;48.964;9.406;2022-11-09T12:26:11;2.75;;;1.65;;
13343;SDS011;6741;48.964;9.406;2022-11-09T12:28:53;2.03;;;1.83;;
13343;SDS011;6741;48.964;9.406;2022-11-09T12:31:36;1.40;;;1.30;;
13343;SDS011;6741;48.964;9.406;2022-11-09T12:34:17;2.00;;;1.80;;
13343;SDS011;6741;48.964;9.406;2022-11-09T12:36:53;4.70;;;1.83;;
13343;SDS011;6741;48.964;9.406;2022-11-09T12:39:25;2.08;;;1.80;;
13343;SDS011;6741;48.964;9.406;2022-11-09T12:41:59;3.17;;;2.03;;
13343;SDS011;6741;48.964;9.406;2022-11-09T12:44:31;2.83;;;2.28;;
13343;SDS011;6741;48.964;9.406;2022-11-09T12:47:15;3.47;;;2.80;;
13343;SDS011;6741;48.964;9.406;2022-11-09T12:49:46;2.05;;;1.85;;
13343;SDS011;6741;48.964;9.406;2022-11-09T12:52:14;3.70;;;2.05;;
13343;SDS011;6741;48.964;9.406;2022-11-09T12:58:08;6.80;;;4.03;;
13343;SDS011;6741;48.964;9.406;2022-11-09T13:00:48;4.93;;;2.75;;
13343;SDS011;6741;48.964;9.406;2022-11-09T13:03:20;6.13;;;2.78;;
13343;SDS011;6741;48.964;9.406;2022-11-09T13:08:39;5.03;;;2.33;;
13343;SDS011;6741;48.964;9.406;2022-11-09T13:11:09;4.95;;;2.85;;
13343;SDS011;6741;48.964;9.406;2022-11-09T13:13:45;3.72;;;2.50;;
13343;SDS011;6741;48.964;9.406;2022-11-09T13:16:32;3.08;;;2.13;;
13343;SDS011;6741;48.964;9.406;2022-11-09T13:19:00;3.65;;;2.45;;
13343;SDS011;6741;48.964;9.406;2022-11-09T13:21:31;3.30;;;3.00;;
13343;SDS011;6741;48.964;9.406;2022-11-09T13:24:26;2.88;;;2.35;;
13343;SDS011;6741;48.964;9.406;2022-11-09T13:35:57;2.97;;;2.10;;
13343;SDS011;6741;48.964;9.406;2022-11-09T13:38:40;4.60;;;2.40;;
13343;SDS011;6741;48.964;9.406;2022-11-09T13:44:11;2.60;;;2.40;;
13343;SDS011;6741;48.964;9.406;2022-11-09T13:46:45;2.90;;;2.58;;
13343;SDS011;6741;48.964;9.406;2022-11-09T13:55:20;3.90;;;3.60;;
13343;SDS011;6741;48.964;9.406;2022-11-09T13:57:58;4.57;;;3.38;;
13343;SDS011;6741;48.964;9.406;2022-11-09T14:00:30;3.58;;;3.10;;
13343;SDS011;6741;48.964;9.406;2022-11-09T14:02:59;3.15;;;2.85;;
13343;SDS011;6741;48.964;9.406;2022-11-09T14:05:31;3.70;;;3.20;;
13343;SDS011;6741;48.964;9.406;2022-11-09T14:08:00;3.50;;;3.20;;
13343;SDS011;6741;48.964;9.406;2022-11-09T14:10:35;5.32;;;3.97;;
13343;SDS011;6741;48.964;9.406;2022-11-09T14:13:17;6.38;;;5.78;;
13343;SDS011;6741;48.964;9.406;2022-11-09T14:16:01;9.20;;;6.60;;
13343;SDS011;6741;48.964;9.406;2022-11-09T14:18:41;6.20;;;5.60;;
13343;SDS011;6741;48.964;9.406;2022-11-09T14:21:19;5.72;;;5.22;;
13343;SDS011;6741;48.964;9.406;2022-11-09T14:24:12;4.57;;;4.13;;
13343;SDS011;6741;48.964;9.406;2022-11-09T14:29:25;4.47;;;4.03;;
13343;SDS011;6741;48.964;9.406;2022-11-09T14:31:57;3.92;;;3.63;;
13343;SDS011;6741;48.964;9.406;2022-11-09T14:34:26;3.53;;;3.25;;
13343;SDS011;6741;48.964;9.406;2022-11-09T14:36:53;4.55;;;4.03;;
13343;SDS011;6741;48.964;9.406;2022-11-09T14:39:25;4.78;;;3.70;;
13343;SDS011;6741;48.964;9.406;2022-11-09T14:41:55;3.70;;;3.40;;
13343;SDS011;6741;48.964;9.406;2022-11-09T14:44:26;4.47;;;4.00;;
13343;SDS011;6741;48.964;9.406;2022-11-09T14:46:56;3.80;;;3.30;;
13343;SDS011;6741;48.964;9.406;2022-11-09T14:49:25;5.10;;;3.75;;
13343;SDS011;6741;48.964;9.406;2022-11-09T14:51:53;4.25;;;3.85;;
13343;SDS011;6741;48.964;9.406;2022-11-09T14:54:22;4.10;;;3.70;;
13343;SDS011;6741;48.964;9.406;2022-11-09T14:56:51;5.68;;;3.78;;
13343;SDS011;6741;48.964;9.406;2022-11-09T14:59:20;5.15;;;4.65;;
13343;SDS011;6741;48.964;9.406;2022-11-09T15:02:00;5.00;;;4.50;;
13343;SDS011;6741;48.964;9.406;2022-11-09T15:04:33;5.72;;;4.47;;
13343;SDS011;6741;48.964;9.406;2022-11-09T15:07:18;6.53;;;4.85;;
13343;SDS011;6741;48.964;9.406;2022-11-09T15:09:47;5.32;;;4.38;;
13343;SDS011;6741;48.964;9.406;2022-11-09T15:12:17;5.22;;;4.70;;
13343;SDS011;6741;48.964;9.406;2022-11-09T15:14:47;5.13;;;4.63;;
13343;SDS011;6741;48.964;9.406;2022-11-09T15:17:15;4.70;;;4.13;;
13343;SDS011;6741;48.964;9.406;2022-11-09T15:19:50;7.33;;;5.00;;
13343;SDS011;6741;48.964;9.406;2022-11-09T15:25:20;7.37;;;5.30;;
13343;SDS011;6741;48.964;9.406;2022-11-09T15:28:00;7.17;;;5.30;;
13343;SDS011;6741;48.964;9.406;2022-11-09T15:30:47;5.07;;;4.63;;
13343;SDS011;6741;48.964;9.406;2022-11-09T15:33:38;8.17;;;5.70;;
13343;SDS011;6741;48.964;9.406;2022-11-09T15:36:19;7.67;;;5.87;;
13343;SDS011;6741;48.964;9.406;2022-11-09T15:39:04;6.70;;;6.00;;
13343;SDS011;6741;48.964;9.406;2022-11-09T15:41:33;11.20;;;6.57;;
13343;SDS011;6741;48.964;9.406;2022-11-09T15:44:02;8.07;;;6.90;;
13343;SDS011;6741;48.964;9.406;2022-11-09T15:46:31;9.10;;;7.10;;
13343;SDS011;6741;48.964;9.406;2022-11-09T15:49:05;10.03;;;6.80;;
13343;SDS011;6741;48.964;9.406;2022-11-09T15:51:42;10.20;;;6.97;;
13343;SDS011;6741;48.964;9.406;2022-11-09T15:54:10;6.37;;;5.77;;
13343;SDS011;6741;48.964;9.406;2022-11-09T15:56:37;7.43;;;6.70;;